Decoded Metar for GCLP (LAS PALMAS in SPAIN) (IATA:LPA) | Meteo·Mobile Aviation Weather
aviador You're here:

GCLP Decoded Metar

LAS PALMAS in SPAIN
Report Time2019-07-19 18:00:00
UTC Time2019-07-19 18:27:31
Flight Rules vfr VFR
Wind360° at 25 Gusting to 35 kt
W.Decomp.*RWY 03: 22.7 kt HW 10.6 kt LCW
Visibility9999 m
Phenomena:N/A
Clouds:Scattered 035 Hf
Expected CloudBase > 3,200 ft AGL from Temp-Dew spread
CeilingNone
Temp25°C (ISA +10)
Dew Point17°C (61% RH)
AAT18.4°C
QNH1015 hPa
Density Alt1,450 ft
Elevation82 ft
Report Wrong Elevation
Raw Report
GCLP 191800Z 36025G35KT 9999 SCT035 25/17 Q1015 NOSIG=

Extra information for GCLP:More info

Metar Taf Metar & Taf Last 4 Metars F.Rules Stats Wind Profile Meteogram Temp Stats Airport Information Weather charts Add Link Nearby VenuesMetar ALERT Operation Metar Decoded Social comments